createdAt,value
2022-10-03T00:00:12.138Z,16.37
2022-10-03T00:03:22.069Z,16.49
2022-10-03T00:06:09.251Z,16.53
2022-10-03T00:09:04.797Z,16.35
2022-10-03T00:11:45.503Z,16.37
2022-10-03T00:14:19.777Z,16.31
2022-10-03T00:16:54.913Z,16.33
2022-10-03T00:19:36.828Z,16.42
2022-10-03T00:22:18.960Z,16.49
2022-10-03T00:24:59.123Z,16.51
2022-10-03T00:27:34.511Z,16.70
2022-10-03T00:30:16.554Z,16.86
2022-10-03T00:33:09.238Z,16.93
2022-10-03T00:35:49.147Z,17.03
2022-10-03T00:38:38.738Z,17.03
2022-10-03T00:41:33.520Z,17.01
2022-10-03T00:44:25.796Z,16.99
2022-10-03T00:47:12.474Z,16.95
2022-10-03T00:50:15.808Z,16.80
2022-10-03T00:53:12.359Z,16.69
2022-10-03T00:55:58.547Z,16.69
2022-10-03T00:58:44.428Z,16.73
2022-10-03T01:01:25.326Z,16.76
2022-10-03T01:04:10.904Z,16.76
2022-10-03T01:06:47.105Z,16.75
2022-10-03T01:09:44.408Z,16.81
2022-10-03T01:12:38.974Z,16.86
2022-10-03T01:15:24.413Z,16.76
2022-10-03T01:18:09.386Z,16.70
2022-10-03T01:20:46.501Z,16.67
2022-10-03T01:23:37.335Z,16.65
2022-10-03T01:26:16.150Z,16.55
2022-10-03T01:29:10.274Z,16.54
2022-10-03T01:31:48.908Z,16.66
2022-10-03T01:34:25.613Z,16.73
2022-10-03T01:37:02.325Z,16.78
2022-10-03T01:39:37.868Z,16.72
2022-10-03T01:42:13.193Z,16.70
2022-10-03T01:45:02.015Z,16.75
2022-10-03T01:47:36.559Z,16.77
2022-10-03T01:50:13.694Z,16.75
2022-10-03T01:52:49.931Z,16.79
2022-10-03T01:55:24.322Z,16.78
2022-10-03T01:58:01.093Z,16.80
2022-10-03T02:00:37.012Z,16.84
2022-10-03T02:03:12.262Z,16.90
2022-10-03T02:05:49.086Z,16.95
2022-10-03T02:08:30.128Z,16.94
2022-10-03T02:11:03.588Z,16.96
2022-10-03T02:13:42.187Z,16.98
2022-10-03T02:16:16.988Z,16.98
2022-10-03T02:18:50.989Z,17.01
2022-10-03T02:21:21.661Z,16.96
2022-10-03T02:23:50.951Z,16.90
2022-10-03T02:26:59.597Z,16.96
2022-10-03T02:29:49.718Z,16.88
2022-10-03T02:32:47.888Z,16.83
2022-10-03T02:35:35.743Z,16.69
2022-10-03T02:38:34.097Z,16.64
2022-10-03T02:41:39.368Z,16.65
2022-10-03T02:45:01.092Z,16.63
2022-10-03T02:48:19.759Z,16.56
2022-10-03T02:51:31.008Z,16.48
2022-10-03T02:54:30.985Z,16.41
2022-10-03T02:57:31.210Z,16.40
2022-10-03T03:00:10.173Z,16.36
2022-10-03T03:03:12.241Z,16.34
2022-10-03T03:06:09.673Z,16.24
2022-10-03T03:09:00.205Z,16.23
2022-10-03T03:11:54.315Z,16.21
2022-10-03T03:14:47.592Z,16.24
2022-10-03T03:17:28.122Z,16.28
2022-10-03T03:20:19.633Z,16.25
2022-10-03T03:23:02.908Z,16.30
2022-10-03T03:25:45.077Z,16.26
2022-10-03T03:28:27.637Z,16.30
2022-10-03T03:31:06.566Z,16.29
2022-10-03T03:33:41.739Z,16.29
2022-10-03T03:36:18.250Z,16.27
2022-10-03T03:38:58.127Z,16.24
2022-10-03T03:41:53.310Z,16.32
2022-10-03T03:44:54.474Z,16.32
2022-10-03T03:47:38.798Z,16.26
2022-10-03T03:50:22.384Z,16.27
2022-10-03T03:52:59.869Z,16.26
2022-10-03T03:55:48.691Z,16.23
2022-10-03T03:58:26.135Z,16.21
2022-10-03T04:01:07.021Z,16.19
2022-10-03T04:03:51.206Z,16.14
2022-10-03T04:06:35.598Z,16.07
2022-10-03T04:09:30.558Z,16.13
2022-10-03T04:12:09.988Z,16.15
2022-10-03T04:14:56.306Z,16.18
2022-10-03T04:17:52.406Z,16.26
2022-10-03T04:20:36.305Z,16.19
2022-10-03T04:23:18.529Z,16.19
2022-10-03T04:26:10.917Z,16.28
2022-10-03T04:29:25.278Z,16.26
2022-10-03T04:32:01.361Z,16.32
2022-10-03T04:34:38.518Z,16.33
2022-10-03T04:37:19.211Z,16.35
2022-10-03T04:39:57.921Z,16.36
2022-10-03T04:42:40.981Z,16.28
2022-10-03T04:45:20.828Z,16.25
2022-10-03T04:47:54.677Z,16.22
2022-10-03T04:50:32.694Z,16.23
2022-10-03T04:53:19.344Z,16.29
2022-10-03T04:55:50.093Z,16.30
2022-10-03T04:58:32.391Z,16.30
2022-10-03T05:01:13.294Z,16.26
2022-10-03T05:03:49.359Z,16.28
2022-10-03T05:06:31.629Z,16.31
2022-10-03T05:09:09.090Z,16.25
2022-10-03T05:11:50.422Z,16.32
2022-10-03T05:14:28.247Z,16.36
2022-10-03T05:17:06.172Z,16.41
2022-10-03T05:19:47.735Z,16.35
2022-10-03T05:22:34.264Z,16.39
2022-10-03T05:25:12.887Z,16.39
2022-10-03T05:27:51.804Z,16.27
2022-10-03T05:30:35.368Z,16.25
2022-10-03T05:33:09.113Z,16.30
2022-10-03T05:35:52.334Z,16.23
2022-10-03T05:38:55.109Z,16.22
2022-10-03T05:41:28.713Z,16.24
2022-10-03T05:44:04.954Z,16.27
2022-10-03T05:46:54.127Z,16.14
2022-10-03T05:49:45.354Z,16.25
2022-10-03T05:52:39.124Z,16.30
2022-10-03T05:55:30.770Z,16.37
2022-10-03T05:58:43.511Z,16.48
2022-10-03T06:01:47.482Z,16.44
2022-10-03T06:04:56.091Z,16.49
2022-10-03T06:07:30.274Z,16.52
2022-10-03T06:10:39.150Z,16.51
2022-10-03T06:13:14.813Z,16.47
2022-10-03T06:16:12.854Z,16.46
2022-10-03T06:19:03.729Z,16.45
2022-10-03T06:22:17.619Z,16.55
2022-10-03T06:25:27.660Z,16.57
2022-10-03T06:28:41.908Z,16.55
2022-10-03T06:31:54.362Z,16.57
2022-10-03T06:34:51.653Z,16.56
2022-10-03T06:37:43.570Z,16.68
2022-10-03T06:40:53.522Z,16.68
2022-10-03T06:43:45.796Z,16.67
2022-10-03T06:46:55.485Z,16.70
2022-10-03T06:49:34.310Z,16.74
2022-10-03T06:52:20.059Z,16.79
2022-10-03T06:55:23.287Z,16.85
2022-10-03T06:58:14.878Z,16.82
2022-10-03T07:00:54.598Z,16.90
2022-10-03T07:03:50.638Z,16.99
2022-10-03T07:06:46.101Z,17.06
2022-10-03T07:09:47.659Z,17.02
2022-10-03T07:12:44.746Z,17.05
2022-10-03T07:16:21.067Z,17.08
2022-10-03T07:19:14.820Z,17.06
2022-10-03T07:22:17.177Z,17.25
2022-10-03T07:25:23.537Z,17.44
2022-10-03T07:28:12.735Z,17.51
2022-10-03T07:30:56.459Z,17.61
2022-10-03T07:33:43.241Z,17.72
2022-10-03T07:36:50.965Z,17.76
2022-10-03T07:39:53.382Z,17.80
2022-10-03T07:42:59.373Z,17.85
2022-10-03T07:45:35.577Z,17.85
2022-10-03T07:48:33.981Z,17.97
2022-10-03T07:51:13.140Z,17.92
2022-10-03T07:54:26.189Z,18.06
2022-10-03T07:57:22.390Z,18.19
2022-10-03T08:00:05.692Z,18.28
2022-10-03T08:03:02.030Z,18.35
2022-10-03T08:05:46.175Z,18.38
2022-10-03T08:08:54.232Z,18.30
2022-10-03T08:11:38.077Z,18.39
2022-10-03T08:14:19.097Z,18.48
2022-10-03T08:17:14.282Z,18.49
2022-10-03T08:20:05.393Z,18.45
2022-10-03T08:22:48.902Z,18.49
2022-10-03T08:25:22.388Z,18.41
2022-10-03T08:28:14.225Z,18.18
2022-10-03T08:31:05.483Z,18.30
2022-10-03T08:33:49.665Z,18.28
2022-10-03T08:36:54.149Z,18.14
2022-10-03T08:39:42.834Z,18.19
2022-10-03T08:42:39.446Z,18.25
2022-10-03T08:45:43.598Z,18.24
2022-10-03T08:48:36.398Z,18.38
2022-10-03T08:51:31.836Z,18.49
2022-10-03T08:54:32.263Z,18.54
2022-10-03T08:57:20.838Z,18.38
2022-10-03T09:00:14.838Z,18.42
2022-10-03T09:03:35.267Z,18.41
2022-10-03T09:07:12.238Z,18.36
2022-10-03T09:10:09.078Z,18.39
2022-10-03T09:13:09.454Z,18.48
2022-10-03T09:16:09.036Z,18.61
2022-10-03T09:19:00.726Z,18.66
2022-10-03T09:22:00.419Z,18.78
2022-10-03T09:25:01.927Z,18.89
2022-10-03T09:27:58.873Z,18.87
2022-10-03T09:30:43.861Z,18.94
2022-10-03T09:33:55.261Z,19.06
2022-10-03T09:37:03.525Z,18.97
2022-10-03T09:40:03.697Z,18.90
2022-10-03T09:43:01.553Z,19.12
2022-10-03T09:46:01.209Z,19.37
2022-10-03T09:48:55.328Z,19.58
2022-10-03T09:51:36.236Z,19.54
2022-10-03T09:54:35.370Z,19.53
2022-10-03T09:57:31.285Z,19.67
2022-10-03T10:00:20.630Z,19.60
2022-10-03T10:03:21.550Z,19.66
2022-10-03T10:06:08.195Z,19.32
2022-10-03T10:09:00.733Z,19.29
2022-10-03T10:11:52.617Z,19.21
2022-10-03T10:14:50.762Z,18.92
2022-10-03T10:17:56.537Z,19.08
2022-10-03T10:20:40.446Z,19.04
2022-10-03T10:23:38.078Z,19.21
2022-10-03T10:26:32.067Z,19.44
2022-10-03T10:29:28.425Z,19.24
2022-10-03T10:32:48.426Z,19.65
2022-10-03T10:35:51.761Z,19.06
2022-10-03T10:38:35.461Z,19.43
2022-10-03T10:41:36.203Z,19.68
2022-10-03T10:44:36.957Z,20.02
2022-10-03T10:47:14.395Z,19.89
2022-10-03T10:50:20.139Z,19.72
2022-10-03T10:53:23.885Z,19.78
2022-10-03T10:56:24.898Z,19.81
2022-10-03T10:59:45.750Z,19.96
2022-10-03T11:02:52.610Z,20.19
2022-10-03T11:05:57.932Z,20.01
2022-10-03T11:08:56.800Z,20.26
2022-10-03T11:12:00.649Z,19.95
2022-10-03T11:14:43.033Z,20.16
2022-10-03T11:17:35.614Z,20.59
2022-10-03T11:20:49.166Z,20.65
2022-10-03T11:24:03.733Z,21.13
2022-10-03T11:27:10.881Z,21.04
2022-10-03T11:30:18.717Z,20.44
2022-10-03T11:33:32.168Z,20.47
2022-10-03T11:36:53.403Z,20.61
2022-10-03T11:39:29.748Z,20.62
2022-10-03T11:42:06.993Z,20.76
2022-10-03T11:44:39.481Z,20.98
2022-10-03T11:47:31.951Z,20.96
2022-10-03T11:50:45.412Z,20.87
2022-10-03T11:53:35.028Z,21.27
2022-10-03T11:56:16.862Z,21.53
2022-10-03T11:58:56.537Z,21.63
2022-10-03T12:01:39.197Z,21.65
2022-10-03T12:04:15.079Z,21.10
2022-10-03T12:07:32.822Z,21.41
2022-10-03T12:10:09.467Z,21.24
2022-10-03T12:12:43.512Z,21.02
2022-10-03T12:15:25.345Z,21.26
2022-10-03T12:18:05.010Z,21.23
2022-10-03T12:20:46.302Z,21.10
2022-10-03T12:23:30.827Z,21.46
2022-10-03T12:26:02.767Z,21.91
2022-10-03T12:28:38.853Z,21.42
2022-10-03T12:31:18.910Z,21.49
2022-10-03T12:33:53.792Z,21.53
2022-10-03T12:36:31.682Z,21.68
2022-10-03T12:39:19.335Z,22.03
2022-10-03T12:42:00.756Z,22.24
2022-10-03T12:44:40.800Z,22.44
2022-10-03T12:47:54.402Z,22.86
2022-10-03T12:50:33.593Z,22.92
2022-10-03T12:53:23.864Z,23.13
2022-10-03T12:56:06.427Z,22.52
2022-10-03T12:58:46.059Z,22.28
2022-10-03T13:01:26.393Z,22.76
2022-10-03T13:03:58.447Z,22.83
2022-10-03T13:07:02.315Z,22.92
2022-10-03T13:09:50.242Z,22.41
2022-10-03T13:12:31.627Z,22.67
2022-10-03T13:15:31.843Z,22.27
2022-10-03T13:18:11.779Z,22.71
2022-10-03T13:20:42.359Z,22.92
2022-10-03T13:23:21.085Z,22.90
2022-10-03T13:25:59.990Z,22.69
2022-10-03T13:28:36.832Z,22.53
2022-10-03T13:31:12.337Z,22.33
2022-10-03T13:33:45.449Z,22.14
2022-10-03T13:36:22.478Z,22.02
2022-10-03T13:39:14.114Z,21.82
2022-10-03T13:41:59.803Z,21.68
2022-10-03T13:44:37.448Z,22.00
2022-10-03T13:47:25.228Z,21.78
2022-10-03T13:49:58.758Z,22.18
2022-10-03T13:52:38.105Z,22.71
2022-10-03T13:55:26.293Z,22.25
2022-10-03T13:58:12.114Z,22.45
2022-10-03T14:00:54.985Z,22.42
2022-10-03T14:03:32.198Z,22.83
2022-10-03T14:06:16.796Z,22.78
2022-10-03T14:09:09.997Z,22.46
2022-10-03T14:11:46.633Z,23.27
2022-10-03T14:14:35.329Z,23.46
2022-10-03T14:17:12.539Z,23.04
2022-10-03T14:19:53.230Z,22.99
2022-10-03T14:22:34.324Z,22.72
2022-10-03T14:25:18.254Z,22.66
2022-10-03T14:27:51.829Z,22.76
2022-10-03T14:30:22.756Z,22.58
2022-10-03T14:33:10.802Z,22.14
2022-10-03T14:35:44.146Z,22.04
2022-10-03T14:38:54.285Z,22.09
2022-10-03T14:41:26.643Z,22.39
2022-10-03T14:43:58.091Z,22.65
2022-10-03T14:46:28.589Z,22.68
2022-10-03T14:49:03.175Z,23.06
2022-10-03T14:51:35.307Z,23.30
2022-10-03T14:54:07.794Z,23.36
2022-10-03T14:56:42.993Z,23.47
2022-10-03T14:59:14.937Z,23.41
2022-10-03T15:01:50.326Z,23.06
2022-10-03T15:04:29.098Z,22.89
2022-10-03T15:07:00.309Z,23.03
2022-10-03T15:09:35.618Z,23.39
2022-10-03T15:12:09.607Z,23.57
2022-10-03T15:14:42.014Z,23.82
2022-10-03T15:17:19.420Z,24.21
2022-10-03T15:19:54.938Z,24.05
2022-10-03T15:22:35.634Z,23.72
2022-10-03T15:25:08.869Z,23.73
2022-10-03T15:27:40.687Z,23.81
2022-10-03T15:30:19.898Z,23.75
2022-10-03T15:32:49.841Z,24.13
2022-10-03T15:35:22.633Z,24.05
2022-10-03T15:37:52.285Z,24.01
2022-10-03T15:40:31.342Z,23.72
2022-10-03T15:43:07.892Z,23.74
2022-10-03T15:45:37.943Z,23.67
2022-10-03T15:48:13.085Z,23.71
2022-10-03T15:50:43.639Z,23.74
2022-10-03T15:53:35.595Z,23.74
2022-10-03T15:56:15.134Z,23.49
2022-10-03T15:58:49.578Z,22.68
2022-10-03T16:01:22.910Z,23.06
2022-10-03T16:03:53.639Z,23.37
2022-10-03T16:06:26.348Z,23.50
2022-10-03T16:09:00.990Z,23.41
2022-10-03T16:11:33.779Z,23.27
2022-10-03T16:14:16.235Z,23.45
2022-10-03T16:16:49.442Z,23.47
2022-10-03T16:19:28.033Z,23.53
2022-10-03T16:22:08.915Z,23.46
2022-10-03T16:24:42.086Z,23.41
2022-10-03T16:27:16.796Z,23.02
2022-10-03T16:29:52.066Z,23.08
2022-10-03T16:32:23.347Z,23.11
2022-10-03T16:34:51.884Z,22.95
2022-10-03T16:37:24.728Z,23.04
2022-10-03T16:40:00.529Z,22.92
2022-10-03T16:42:39.688Z,22.94
2022-10-03T16:45:19.178Z,23.00
2022-10-03T16:48:10.220Z,22.93
2022-10-03T16:50:43.450Z,22.89
2022-10-03T16:53:13.651Z,22.80
2022-10-03T16:55:47.604Z,22.73
2022-10-03T16:58:22.111Z,22.71
2022-10-03T17:01:22.145Z,22.47
2022-10-03T17:03:49.245Z,22.33
2022-10-03T17:06:22.223Z,22.25
2022-10-03T17:08:52.742Z,22.03
2022-10-03T17:11:24.110Z,21.90
2022-10-03T17:13:55.389Z,21.91
2022-10-03T17:16:33.967Z,21.89
2022-10-03T17:19:14.809Z,21.82
2022-10-03T17:21:52.304Z,21.73
2022-10-03T17:24:32.858Z,21.68
2022-10-03T17:27:07.242Z,21.57
2022-10-03T17:29:41.801Z,21.59
2022-10-03T17:32:15.378Z,21.53
2022-10-03T17:34:48.010Z,21.53
2022-10-03T17:37:46.014Z,21.47
2022-10-03T17:40:22.379Z,21.48
2022-10-03T17:42:55.536Z,21.41
2022-10-03T17:45:32.504Z,21.40
2022-10-03T17:48:06.105Z,21.22
2022-10-03T17:50:44.626Z,21.23
2022-10-03T17:53:21.362Z,21.13
2022-10-03T17:55:56.979Z,21.12
2022-10-03T17:58:29.500Z,21.15
2022-10-03T18:01:05.016Z,21.05
2022-10-03T18:03:39.538Z,21.06
2022-10-03T18:06:55.376Z,21.01
2022-10-03T18:09:38.802Z,20.96
2022-10-03T18:12:16.302Z,20.83
2022-10-03T18:14:59.005Z,20.77
2022-10-03T18:17:37.323Z,20.71
2022-10-03T18:20:22.837Z,20.79
2022-10-03T18:22:59.827Z,20.68
2022-10-03T18:26:08.384Z,20.59
2022-10-03T18:28:46.364Z,20.52
2022-10-03T18:31:19.147Z,20.50
2022-10-03T18:33:53.285Z,20.53
2022-10-03T18:36:26.507Z,20.55
2022-10-03T18:38:58.899Z,20.40
2022-10-03T18:41:27.239Z,20.40
2022-10-03T18:43:59.919Z,20.33
2022-10-03T18:46:31.030Z,20.32
2022-10-03T18:49:30.123Z,20.28
2022-10-03T18:51:57.956Z,20.33
2022-10-03T18:54:35.966Z,20.39
2022-10-03T18:57:08.724Z,20.30
2022-10-03T18:59:46.959Z,20.26
2022-10-03T19:02:23.635Z,20.35
2022-10-03T19:04:56.755Z,20.30
2022-10-03T19:07:26.969Z,20.30
2022-10-03T19:10:22.261Z,20.32
2022-10-03T19:12:54.631Z,20.32
2022-10-03T19:15:38.581Z,20.34
2022-10-03T19:18:20.905Z,20.31
2022-10-03T19:20:51.621Z,20.40
2022-10-03T19:23:26.988Z,20.43
2022-10-03T19:25:57.650Z,20.47
2022-10-03T19:28:30.703Z,20.47
2022-10-03T19:31:05.483Z,20.51
2022-10-03T19:33:43.579Z,20.59
2022-10-03T19:36:18.119Z,20.57
2022-10-03T19:38:47.850Z,20.49
2022-10-03T19:41:28.593Z,20.39
2022-10-03T19:43:57.000Z,20.29
2022-10-03T19:46:45.702Z,20.33
2022-10-03T19:49:35.423Z,20.47
2022-10-03T19:52:18.264Z,20.40
2022-10-03T19:54:51.310Z,20.42
2022-10-03T19:57:21.374Z,20.48
2022-10-03T19:59:53.898Z,20.48
2022-10-03T20:02:25.677Z,20.46
2022-10-03T20:04:55.898Z,20.42
2022-10-03T20:07:44.319Z,20.46
2022-10-03T20:10:43.521Z,20.42
2022-10-03T20:13:12.465Z,20.43
2022-10-03T20:15:44.267Z,20.54
2022-10-03T20:18:21.501Z,20.42
2022-10-03T20:20:52.440Z,20.44
2022-10-03T20:23:22.713Z,20.49
2022-10-03T20:25:56.845Z,20.54
2022-10-03T20:28:40.263Z,20.54
2022-10-03T20:31:09.005Z,20.47
2022-10-03T20:33:38.418Z,20.40
2022-10-03T20:36:13.889Z,20.45
2022-10-03T20:38:59.360Z,20.47
2022-10-03T20:41:37.271Z,20.37
2022-10-03T20:44:13.197Z,20.34
2022-10-03T20:46:45.245Z,20.35
2022-10-03T20:49:27.963Z,20.32
2022-10-03T20:52:02.236Z,20.35
2022-10-03T20:54:37.269Z,20.35
2022-10-03T20:57:14.977Z,20.33
2022-10-03T20:59:47.712Z,20.27
2022-10-03T21:02:25.729Z,20.25
2022-10-03T21:04:59.840Z,20.29
2022-10-03T21:07:36.102Z,20.34
2022-10-03T21:10:17.801Z,20.30
2022-10-03T21:12:49.283Z,20.28
2022-10-03T21:15:27.837Z,20.24
2022-10-03T21:17:58.147Z,20.23
2022-10-03T21:20:33.003Z,20.28
2022-10-03T21:23:04.228Z,20.27
2022-10-03T21:25:36.169Z,20.16
2022-10-03T21:28:05.474Z,20.24
2022-10-03T21:30:55.356Z,20.24
2022-10-03T21:33:30.791Z,20.25
2022-10-03T21:36:08.839Z,20.20
2022-10-03T21:38:39.466Z,20.00
2022-10-03T21:41:27.934Z,19.91
2022-10-03T21:43:58.161Z,19.81
2022-10-03T21:46:39.186Z,19.76
2022-10-03T21:49:37.932Z,19.69
2022-10-03T21:52:31.645Z,19.61
2022-10-03T21:55:04.330Z,19.69
2022-10-03T21:57:46.247Z,19.78
2022-10-03T22:00:16.165Z,19.79
2022-10-03T22:02:56.985Z,19.76
2022-10-03T22:05:36.457Z,19.76
2022-10-03T22:08:16.093Z,19.77
2022-10-03T22:10:55.914Z,19.75
2022-10-03T22:13:26.952Z,19.60
2022-10-03T22:16:04.390Z,19.61
2022-10-03T22:18:43.226Z,19.54
2022-10-03T22:21:24.494Z,19.41
2022-10-03T22:24:00.465Z,19.45
2022-10-03T22:26:34.937Z,19.39
2022-10-03T22:29:11.865Z,19.33
2022-10-03T22:31:47.312Z,19.32
2022-10-03T22:34:25.606Z,19.38
2022-10-03T22:36:53.324Z,19.48
2022-10-03T22:39:23.244Z,19.49
2022-10-03T22:41:55.549Z,19.52
2022-10-03T22:44:26.310Z,19.48
2022-10-03T22:46:58.525Z,19.48
2022-10-03T22:49:29.937Z,19.49
2022-10-03T22:52:01.173Z,19.41
2022-10-03T22:54:35.681Z,19.36
2022-10-03T22:57:07.543Z,19.26
2022-10-03T22:59:46.582Z,19.19
2022-10-03T23:02:19.303Z,19.03
2022-10-03T23:04:51.107Z,19.13
2022-10-03T23:07:36.556Z,19.08
2022-10-03T23:10:26.325Z,19.04
2022-10-03T23:13:02.056Z,19.09
2022-10-03T23:15:33.308Z,19.13
2022-10-03T23:18:31.920Z,19.15
2022-10-03T23:21:08.707Z,19.15
2022-10-03T23:23:47.858Z,19.16
2022-10-03T23:26:47.881Z,19.10
2022-10-03T23:29:18.076Z,19.06
2022-10-03T23:31:58.355Z,18.94
2022-10-03T23:34:48.016Z,18.93
2022-10-03T23:37:41.078Z,18.82
2022-10-03T23:40:40.314Z,18.83
2022-10-03T23:43:36.618Z,18.84
2022-10-03T23:46:10.388Z,18.75
2022-10-03T23:48:45.296Z,18.78
2022-10-03T23:51:17.620Z,18.73
2022-10-03T23:53:51.350Z,18.83
2022-10-03T23:56:33.360Z,18.81
2022-10-03T23:59:18.235Z,18.77
